Oak Ridge, TN (37831)

8:30 PM EST on December 27, 2014 (GMT -0500)
MesoWest Tower W (Y12 West) TN US | Change Station
CLOSE
Current Station
Personal Weather Station
Location: Oak Ridge, TN
Elevation: 1062 ft
Nearby Weather Stations

Elev 1062 ft 35.98 °N, 84.27 °W | Updated 30 minutes ago

Overcast
Overcast
50 °F
Feels Like 50 °F
N
2
Wind Variable Wind from WSW
Gusts 0.0 mph

Today
High -- | Low -- °F
--% Chance of Precip.
Yesterday
High -- | Low -- °F
Precip. -- in
7:46 AM 5:30 PM
Waxing Crescent, 42% visible
Pressure 30.21 in
Visibility 10.0 miles
Clouds Overcast 3900 ft
Dew Point 41 °F
Humidity 72%
Rainfall 0.00 in
Snow Depth Not available.
UV 0 out of 12
Pollen .10 out of 12
Air Quality Not available.
Flu Activity Not available.
METAR KOQT 280053Z AUTO 00000KT 10SM OVC039 11/04 A3018 RMK AO2 SLP228 T01110044

More Conditions Fewer Conditions

Pressure 30.21 in
Visibility 10.0 miles
Clouds Overcast 3900 ft
Dew Point 41 °F
Humidity 72%
Rainfall 0.00 in
Snow Depth Not available.
UV 0 out of 12
Pollen .10 out of 12
Air Quality Not available.
Flu Activity Not available.
METAR KOQT 280053Z AUTO 00000KT 10SM OVC039 11/04 A3018 RMK AO2 SLP228 T01110044

More Conditions Fewer Conditions

10-Day Weather Forecast

Almanac

Astronomy

Dec. 27, 2014 Rise Set
Actual Time
Civil Twilight
Nautical Twilight
Astronomical Twilight
Moon
Length of Visible Light
Length of Day
Tomorrow will be .
, % of the Moon is Illuminated

Today's Extremes

State Highs State Lows

Community

WunderPhotos

Upload Photos

1,781,123 photos uploaded!

WunderBlogs® & News

Nearby

Air Quality

  Air Quality AQ Index Pollutant
Not available.

Snow Depth

Station Depth Elevation

Earthquake Activity

City Distance Mag. Time & Date
Minimum magnitude displayed is 2.5.

Coastal Water Temperatures

Place Temperature

Nearby Weather Stations